Terminal Aerodrome Forecast
Issued by NWS

Home | Current Version | Previous Version | Text Only | Print | Product List | Glossary Off
Versions: 1 2 3 4 5 6 7 8 9 10 11 12 13 14 15 16 17 18 19 20 21 22 23 24 25

000
FTUS43 KICT 301136 AAB
TAFRSL
TAF AMD
KRSL 301136Z 3012/0112 30011KT P6SM OVC006
      TEMPO 3012/3016 4SM BR OVC003
     FM301600 30014KT P6SM SCT007 BKN012
     FM301900 29014KT P6SM SCT020 BKN030
     FM010100 32011KT P6SM SCT020 BKN040
     FM010600 30012KT P6SM OVC012=

USA.gov is the U.S. government's official web portal to all federal, state and local government web resources and services.